sensor_id;sensor_type;location;lat;lon;timestamp;temperature;humidity
28823;DHT22;15961;54.678;9.110;2023-02-28T00:00:19;0.70;99.90
28823;DHT22;15961;54.678;9.110;2023-02-28T00:02:45;0.70;99.90
28823;DHT22;15961;54.678;9.110;2023-02-28T00:05:13;0.70;99.90
28823;DHT22;15961;54.678;9.110;2023-02-28T00:07:39;0.70;99.90
28823;DHT22;15961;54.678;9.110;2023-02-28T00:10:06;0.70;99.90
28823;DHT22;15961;54.678;9.110;2023-02-28T00:12:33;0.70;99.90
28823;DHT22;15961;54.678;9.110;2023-02-28T00:14:59;0.80;99.90
28823;DHT22;15961;54.678;9.110;2023-02-28T00:17:25;0.90;99.90
28823;DHT22;15961;54.678;9.110;2023-02-28T00:19:51;1.00;99.90
28823;DHT22;15961;54.678;9.110;2023-02-28T00:22:19;1.10;99.90
28823;DHT22;15961;54.678;9.110;2023-02-28T00:24:46;1.20;99.90
28823;DHT22;15961;54.678;9.110;2023-02-28T00:27:12;1.30;99.90
28823;DHT22;15961;54.678;9.110;2023-02-28T00:29:38;1.30;99.90
28823;DHT22;15961;54.678;9.110;2023-02-28T00:32:05;1.30;99.90
28823;DHT22;15961;54.678;9.110;2023-02-28T00:34:30;1.50;99.90
28823;DHT22;15961;54.678;9.110;2023-02-28T00:37:09;1.50;99.90
28823;DHT22;15961;54.678;9.110;2023-02-28T00:39:36;1.60;99.90
28823;DHT22;15961;54.678;9.110;2023-02-28T00:42:03;1.60;99.90
28823;DHT22;15961;54.678;9.110;2023-02-28T00:44:29;1.60;99.90
28823;DHT22;15961;54.678;9.110;2023-02-28T00:46:55;1.60;99.90
28823;DHT22;15961;54.678;9.110;2023-02-28T00:49:22;1.70;99.90
28823;DHT22;15961;54.678;9.110;2023-02-28T00:51:48;1.70;99.90
28823;DHT22;15961;54.678;9.110;2023-02-28T00:54:13;1.80;99.90
28823;DHT22;15961;54.678;9.110;2023-02-28T00:56:39;1.80;99.90
28823;DHT22;15961;54.678;9.110;2023-02-28T00:59:04;1.90;99.90
28823;DHT22;15961;54.678;9.110;2023-02-28T01:01:30;1.90;99.90
28823;DHT22;15961;54.678;9.110;2023-02-28T01:03:56;1.90;99.90
28823;DHT22;15961;54.678;9.110;2023-02-28T01:06:21;1.90;99.90
28823;DHT22;15961;54.678;9.110;2023-02-28T01:08:47;2.00;99.90
28823;DHT22;15961;54.678;9.110;2023-02-28T01:11:15;2.00;99.90
28823;DHT22;15961;54.678;9.110;2023-02-28T01:13:42;2.00;99.90
28823;DHT22;15961;54.678;9.110;2023-02-28T01:16:08;2.00;99.90
28823;DHT22;15961;54.678;9.110;2023-02-28T01:18:36;2.10;99.90
28823;DHT22;15961;54.678;9.110;2023-02-28T01:21:12;2.10;99.90
28823;DHT22;15961;54.678;9.110;2023-02-28T01:23:38;2.20;99.90
28823;DHT22;15961;54.678;9.110;2023-02-28T01:26:08;2.10;99.90
28823;DHT22;15961;54.678;9.110;2023-02-28T01:28:34;2.20;99.90
28823;DHT22;15961;54.678;9.110;2023-02-28T01:31:00;2.20;99.90
28823;DHT22;15961;54.678;9.110;2023-02-28T01:33:26;2.20;99.90
28823;DHT22;15961;54.678;9.110;2023-02-28T01:36:03;2.20;99.90
28823;DHT22;15961;54.678;9.110;2023-02-28T01:38:29;2.10;99.90
28823;DHT22;15961;54.678;9.110;2023-02-28T01:40:54;2.10;99.90
28823;DHT22;15961;54.678;9.110;2023-02-28T01:43:35;2.20;99.90
28823;DHT22;15961;54.678;9.110;2023-02-28T01:46:16;2.30;99.90
28823;DHT22;15961;54.678;9.110;2023-02-28T01:51:42;2.20;99.90
28823;DHT22;15961;54.678;9.110;2023-02-28T01:54:18;2.20;99.90
28823;DHT22;15961;54.678;9.110;2023-02-28T01:56:51;2.20;99.90
28823;DHT22;15961;54.678;9.110;2023-02-28T01:59:29;2.20;99.90
28823;DHT22;15961;54.678;9.110;2023-02-28T02:01:55;2.10;99.90
28823;DHT22;15961;54.678;9.110;2023-02-28T02:04:23;1.90;99.90
28823;DHT22;15961;54.678;9.110;2023-02-28T02:06:50;1.80;99.90
28823;DHT22;15961;54.678;9.110;2023-02-28T02:09:16;1.60;99.90
28823;DHT22;15961;54.678;9.110;2023-02-28T02:11:43;1.40;99.90
28823;DHT22;15961;54.678;9.110;2023-02-28T02:19:51;0.90;99.90
28823;DHT22;15961;54.678;9.110;2023-02-28T02:22:47;0.80;99.90
28823;DHT22;15961;54.678;9.110;2023-02-28T02:25:53;0.70;99.90
28823;DHT22;15961;54.678;9.110;2023-02-28T02:34:32;0.40;99.90
28823;DHT22;15961;54.678;9.110;2023-02-28T02:42:45;0.20;99.90
28823;DHT22;15961;54.678;9.110;2023-02-28T02:45:23;0.20;99.90
28823;DHT22;15961;54.678;9.110;2023-02-28T02:47:53;0.10;99.90
28823;DHT22;15961;54.678;9.110;2023-02-28T02:50:25;0.10;99.90
28823;DHT22;15961;54.678;9.110;2023-02-28T02:52:56;0.00;99.90
28823;DHT22;15961;54.678;9.110;2023-02-28T02:55:23;-0.10;99.90
28823;DHT22;15961;54.678;9.110;2023-02-28T02:58:04;-0.10;99.90
28823;DHT22;15961;54.678;9.110;2023-02-28T03:00:38;-0.10;99.90
28823;DHT22;15961;54.678;9.110;2023-02-28T03:03:07;-0.20;99.90
28823;DHT22;15961;54.678;9.110;2023-02-28T03:05:42;-0.20;99.90
28823;DHT22;15961;54.678;9.110;2023-02-28T03:08:10;-0.30;99.90
28823;DHT22;15961;54.678;9.110;2023-02-28T03:16:23;-0.40;99.90
28823;DHT22;15961;54.678;9.110;2023-02-28T03:22:02;-0.60;99.90
28823;DHT22;15961;54.678;9.110;2023-02-28T03:27:29;-0.60;99.90
28823;DHT22;15961;54.678;9.110;2023-02-28T03:30:14;-0.60;99.90
28823;DHT22;15961;54.678;9.110;2023-02-28T03:32:57;-0.70;99.90
28823;DHT22;15961;54.678;9.110;2023-02-28T03:35:31;-0.70;99.90
28823;DHT22;15961;54.678;9.110;2023-02-28T03:38:10;-0.70;99.90
28823;DHT22;15961;54.678;9.110;2023-02-28T03:40:40;-0.70;99.90
28823;DHT22;15961;54.678;9.110;2023-02-28T03:43:12;-0.70;99.90
28823;DHT22;15961;54.678;9.110;2023-02-28T03:45:41;-0.80;99.90
28823;DHT22;15961;54.678;9.110;2023-02-28T03:48:31;-0.80;99.90
28823;DHT22;15961;54.678;9.110;2023-02-28T03:50:59;-0.90;99.90
28823;DHT22;15961;54.678;9.110;2023-02-28T03:54:02;-0.90;99.90
28823;DHT22;15961;54.678;9.110;2023-02-28T03:56:24;-1.00;99.90
28823;DHT22;15961;54.678;9.110;2023-02-28T03:58:59;-1.00;99.90
28823;DHT22;15961;54.678;9.110;2023-02-28T04:01:41;-1.10;99.90
28823;DHT22;15961;54.678;9.110;2023-02-28T04:04:11;-1.10;99.90
28823;DHT22;15961;54.678;9.110;2023-02-28T04:06:38;-1.10;99.90
28823;DHT22;15961;54.678;9.110;2023-02-28T04:09:07;-1.10;99.90
28823;DHT22;15961;54.678;9.110;2023-02-28T04:11:38;-1.20;99.90
28823;DHT22;15961;54.678;9.110;2023-02-28T04:14:05;-1.10;99.90
28823;DHT22;15961;54.678;9.110;2023-02-28T04:16:32;-1.10;99.90
28823;DHT22;15961;54.678;9.110;2023-02-28T04:18:58;-1.10;99.90
28823;DHT22;15961;54.678;9.110;2023-02-28T04:21:49;-1.10;99.90
28823;DHT22;15961;54.678;9.110;2023-02-28T04:24:18;-1.10;99.90
28823;DHT22;15961;54.678;9.110;2023-02-28T04:26:48;-1.10;99.90
28823;DHT22;15961;54.678;9.110;2023-02-28T04:29:20;-1.00;99.90
28823;DHT22;15961;54.678;9.110;2023-02-28T04:31:45;-1.00;99.90
28823;DHT22;15961;54.678;9.110;2023-02-28T04:34:14;-1.00;99.90
28823;DHT22;15961;54.678;9.110;2023-02-28T04:36:39;-0.90;99.90
28823;DHT22;15961;54.678;9.110;2023-02-28T04:39:05;-0.80;99.90
28823;DHT22;15961;54.678;9.110;2023-02-28T04:41:31;-0.90;99.90
28823;DHT22;15961;54.678;9.110;2023-02-28T04:43:56;-0.90;99.90
28823;DHT22;15961;54.678;9.110;2023-02-28T04:46:23;-1.00;99.90
28823;DHT22;15961;54.678;9.110;2023-02-28T04:48:48;-1.10;99.90
28823;DHT22;15961;54.678;9.110;2023-02-28T04:51:16;-1.20;99.90
28823;DHT22;15961;54.678;9.110;2023-02-28T04:53:43;-1.30;99.90
28823;DHT22;15961;54.678;9.110;2023-02-28T04:56:13;-1.20;99.90
28823;DHT22;15961;54.678;9.110;2023-02-28T04:58:39;-1.10;99.90
28823;DHT22;15961;54.678;9.110;2023-02-28T05:01:28;-1.00;99.90
28823;DHT22;15961;54.678;9.110;2023-02-28T05:03:54;-0.90;99.90
28823;DHT22;15961;54.678;9.110;2023-02-28T05:06:22;-0.70;99.90
28823;DHT22;15961;54.678;9.110;2023-02-28T05:08:48;-0.70;99.90
28823;DHT22;15961;54.678;9.110;2023-02-28T05:11:20;-0.70;99.90
28823;DHT22;15961;54.678;9.110;2023-02-28T05:13:46;-0.80;99.90
28823;DHT22;15961;54.678;9.110;2023-02-28T05:16:12;-0.90;99.90
28823;DHT22;15961;54.678;9.110;2023-02-28T05:18:38;-1.00;99.90
28823;DHT22;15961;54.678;9.110;2023-02-28T05:21:04;-1.10;99.90
28823;DHT22;15961;54.678;9.110;2023-02-28T05:23:29;-1.30;99.90
28823;DHT22;15961;54.678;9.110;2023-02-28T05:25:55;-1.30;99.90
28823;DHT22;15961;54.678;9.110;2023-02-28T05:28:21;-1.30;99.90
28823;DHT22;15961;54.678;9.110;2023-02-28T05:30:47;-1.40;99.90
28823;DHT22;15961;54.678;9.110;2023-02-28T05:33:12;-1.40;99.90
28823;DHT22;15961;54.678;9.110;2023-02-28T05:35:39;-1.50;99.90
28823;DHT22;15961;54.678;9.110;2023-02-28T05:38:05;-1.50;99.90
28823;DHT22;15961;54.678;9.110;2023-02-28T05:40:31;-1.60;99.90
28823;DHT22;15961;54.678;9.110;2023-02-28T05:42:56;-1.60;99.90
28823;DHT22;15961;54.678;9.110;2023-02-28T05:45:22;-1.70;99.90
28823;DHT22;15961;54.678;9.110;2023-02-28T05:47:47;-1.70;99.90
28823;DHT22;15961;54.678;9.110;2023-02-28T05:50:13;-1.60;99.90
28823;DHT22;15961;54.678;9.110;2023-02-28T05:52:41;-1.60;99.90
28823;DHT22;15961;54.678;9.110;2023-02-28T05:55:07;-1.60;99.90
28823;DHT22;15961;54.678;9.110;2023-02-28T05:57:33;-1.60;99.90
28823;DHT22;15961;54.678;9.110;2023-02-28T05:59:58;-1.50;99.90
28823;DHT22;15961;54.678;9.110;2023-02-28T06:02:24;-1.40;99.90
28823;DHT22;15961;54.678;9.110;2023-02-28T06:04:49;-1.20;99.90
28823;DHT22;15961;54.678;9.110;2023-02-28T06:07:15;-1.20;99.90
28823;DHT22;15961;54.678;9.110;2023-02-28T06:09:42;-1.30;99.90
28823;DHT22;15961;54.678;9.110;2023-02-28T06:12:09;-1.30;99.90
28823;DHT22;15961;54.678;9.110;2023-02-28T06:14:35;-1.40;99.90
28823;DHT22;15961;54.678;9.110;2023-02-28T06:17:02;-1.50;99.90
28823;DHT22;15961;54.678;9.110;2023-02-28T06:19:28;-1.30;99.90
28823;DHT22;15961;54.678;9.110;2023-02-28T06:21:56;-1.30;99.90
28823;DHT22;15961;54.678;9.110;2023-02-28T06:24:23;-1.30;99.90
28823;DHT22;15961;54.678;9.110;2023-02-28T06:26:49;-1.30;99.90
28823;DHT22;15961;54.678;9.110;2023-02-28T06:29:14;-1.40;99.90
28823;DHT22;15961;54.678;9.110;2023-02-28T06:31:46;-1.40;99.90
28823;DHT22;15961;54.678;9.110;2023-02-28T06:34:13;-1.50;99.90
28823;DHT22;15961;54.678;9.110;2023-02-28T06:36:40;-1.50;99.90
28823;DHT22;15961;54.678;9.110;2023-02-28T06:39:06;-1.50;99.90
28823;DHT22;15961;54.678;9.110;2023-02-28T06:41:31;-1.40;99.90
28823;DHT22;15961;54.678;9.110;2023-02-28T06:44:04;-1.40;99.90
28823;DHT22;15961;54.678;9.110;2023-02-28T06:46:31;-1.40;99.90
28823;DHT22;15961;54.678;9.110;2023-02-28T06:48:57;-1.40;99.90
28823;DHT22;15961;54.678;9.110;2023-02-28T06:51:24;-1.40;99.90
28823;DHT22;15961;54.678;9.110;2023-02-28T06:53:50;-1.40;99.90
28823;DHT22;15961;54.678;9.110;2023-02-28T06:56:17;-1.40;99.90
28823;DHT22;15961;54.678;9.110;2023-02-28T06:58:46;-1.30;99.90
28823;DHT22;15961;54.678;9.110;2023-02-28T07:01:14;-1.20;99.90
28823;DHT22;15961;54.678;9.110;2023-02-28T07:03:42;-1.10;99.90
28823;DHT22;15961;54.678;9.110;2023-02-28T07:06:08;-1.00;99.90
28823;DHT22;15961;54.678;9.110;2023-02-28T07:08:35;-1.00;99.90
28823;DHT22;15961;54.678;9.110;2023-02-28T07:11:01;-0.90;99.90
28823;DHT22;15961;54.678;9.110;2023-02-28T07:13:27;-0.80;99.90
28823;DHT22;15961;54.678;9.110;2023-02-28T07:15:58;-0.70;99.90
28823;DHT22;15961;54.678;9.110;2023-02-28T07:18:24;-0.60;99.90
28823;DHT22;15961;54.678;9.110;2023-02-28T07:20:50;-0.40;99.90
28823;DHT22;15961;54.678;9.110;2023-02-28T07:23:16;-0.30;99.90
28823;DHT22;15961;54.678;9.110;2023-02-28T07:25:45;-0.10;99.90
28823;DHT22;15961;54.678;9.110;2023-02-28T07:28:12;0.00;99.90
28823;DHT22;15961;54.678;9.110;2023-02-28T07:30:37;0.20;99.90
28823;DHT22;15961;54.678;9.110;2023-02-28T07:33:03;0.30;99.90
28823;DHT22;15961;54.678;9.110;2023-02-28T07:35:29;0.50;99.90
28823;DHT22;15961;54.678;9.110;2023-02-28T07:37:58;0.70;99.90
28823;DHT22;15961;54.678;9.110;2023-02-28T07:40:24;0.80;99.90
28823;DHT22;15961;54.678;9.110;2023-02-28T07:42:50;1.00;99.90
28823;DHT22;15961;54.678;9.110;2023-02-28T07:45:15;1.10;99.90
28823;DHT22;15961;54.678;9.110;2023-02-28T07:47:42;1.30;99.90
28823;DHT22;15961;54.678;9.110;2023-02-28T07:50:09;1.50;99.90
28823;DHT22;15961;54.678;9.110;2023-02-28T07:52:37;1.80;99.90
28823;DHT22;15961;54.678;9.110;2023-02-28T07:55:03;2.00;99.90
28823;DHT22;15961;54.678;9.110;2023-02-28T07:57:29;2.10;99.90
28823;DHT22;15961;54.678;9.110;2023-02-28T07:59:55;2.30;99.90
28823;DHT22;15961;54.678;9.110;2023-02-28T08:02:20;2.50;99.90
28823;DHT22;15961;54.678;9.110;2023-02-28T08:04:46;2.70;99.90
28823;DHT22;15961;54.678;9.110;2023-02-28T08:07:13;2.90;99.90
28823;DHT22;15961;54.678;9.110;2023-02-28T08:09:39;3.00;99.90
28823;DHT22;15961;54.678;9.110;2023-02-28T08:12:06;3.20;99.90
28823;DHT22;15961;54.678;9.110;2023-02-28T08:14:32;3.40;99.90
28823;DHT22;15961;54.678;9.110;2023-02-28T08:16:57;3.40;99.90
28823;DHT22;15961;54.678;9.110;2023-02-28T08:19:23;3.50;99.90
28823;DHT22;15961;54.678;9.110;2023-02-28T08:21:49;3.60;99.90
28823;DHT22;15961;54.678;9.110;2023-02-28T08:24:14;3.70;99.90
28823;DHT22;15961;54.678;9.110;2023-02-28T08:26:40;3.80;99.90
28823;DHT22;15961;54.678;9.110;2023-02-28T08:29:05;4.00;99.90
28823;DHT22;15961;54.678;9.110;2023-02-28T08:31:31;4.00;99.90
28823;DHT22;15961;54.678;9.110;2023-02-28T08:33:56;4.20;99.90
28823;DHT22;15961;54.678;9.110;2023-02-28T08:36:24;4.30;99.90
28823;DHT22;15961;54.678;9.110;2023-02-28T08:38:50;4.40;99.90
28823;DHT22;15961;54.678;9.110;2023-02-28T08:41:16;4.70;99.90
28823;DHT22;15961;54.678;9.110;2023-02-28T08:43:41;4.90;99.90
28823;DHT22;15961;54.678;9.110;2023-02-28T08:46:08;5.00;99.90
28823;DHT22;15961;54.678;9.110;2023-02-28T08:48:36;5.10;99.90
28823;DHT22;15961;54.678;9.110;2023-02-28T08:51:14;5.20;99.90
28823;DHT22;15961;54.678;9.110;2023-02-28T08:53:42;5.30;99.90
28823;DHT22;15961;54.678;9.110;2023-02-28T08:56:12;5.30;99.90
28823;DHT22;15961;54.678;9.110;2023-02-28T08:58:38;5.40;99.90
28823;DHT22;15961;54.678;9.110;2023-02-28T09:01:12;5.50;99.90
28823;DHT22;15961;54.678;9.110;2023-02-28T09:03:38;5.50;99.90
28823;DHT22;15961;54.678;9.110;2023-02-28T09:06:04;5.60;99.90
28823;DHT22;15961;54.678;9.110;2023-02-28T09:08:31;5.70;99.90
28823;DHT22;15961;54.678;9.110;2023-02-28T09:10:57;5.70;99.90
28823;DHT22;15961;54.678;9.110;2023-02-28T09:13:24;5.70;99.90
28823;DHT22;15961;54.678;9.110;2023-02-28T09:15:50;5.80;99.90
28823;DHT22;15961;54.678;9.110;2023-02-28T09:18:16;5.90;99.90
28823;DHT22;15961;54.678;9.110;2023-02-28T09:20:42;6.00;99.90
28823;DHT22;15961;54.678;9.110;2023-02-28T09:23:09;6.10;99.90
28823;DHT22;15961;54.678;9.110;2023-02-28T09:25:35;6.20;99.90
28823;DHT22;15961;54.678;9.110;2023-02-28T09:28:01;6.30;99.90
28823;DHT22;15961;54.678;9.110;2023-02-28T09:30:27;6.50;99.90
28823;DHT22;15961;54.678;9.110;2023-02-28T09:32:53;6.50;99.90
28823;DHT22;15961;54.678;9.110;2023-02-28T09:35:19;6.60;99.90
28823;DHT22;15961;54.678;9.110;2023-02-28T09:37:47;6.60;99.90
28823;DHT22;15961;54.678;9.110;2023-02-28T09:40:14;6.70;99.90
28823;DHT22;15961;54.678;9.110;2023-02-28T09:42:44;6.80;99.90
28823;DHT22;15961;54.678;9.110;2023-02-28T09:45:24;6.90;99.90
28823;DHT22;15961;54.678;9.110;2023-02-28T09:47:56;7.10;99.90
28823;DHT22;15961;54.678;9.110;2023-02-28T09:52:53;7.10;99.90
28823;DHT22;15961;54.678;9.110;2023-02-28T09:55:30;7.30;99.90
28823;DHT22;15961;54.678;9.110;2023-02-28T09:58:00;7.40;99.90
28823;DHT22;15961;54.678;9.110;2023-02-28T10:00:33;7.50;99.90
28823;DHT22;15961;54.678;9.110;2023-02-28T10:03:25;7.50;99.90
28823;DHT22;15961;54.678;9.110;2023-02-28T10:06:16;7.40;99.90
28823;DHT22;15961;54.678;9.110;2023-02-28T10:11:44;7.30;99.90
28823;DHT22;15961;54.678;9.110;2023-02-28T10:14:14;7.60;99.90
28823;DHT22;15961;54.678;9.110;2023-02-28T10:17:03;7.60;99.90
28823;DHT22;15961;54.678;9.110;2023-02-28T10:19:35;7.70;99.90
28823;DHT22;15961;54.678;9.110;2023-02-28T10:22:17;7.70;99.90
28823;DHT22;15961;54.678;9.110;2023-02-28T10:24:45;7.80;99.90
28823;DHT22;15961;54.678;9.110;2023-02-28T10:27:23;7.80;99.90
28823;DHT22;15961;54.678;9.110;2023-02-28T10:29:51;7.90;99.90
28823;DHT22;15961;54.678;9.110;2023-02-28T10:32:20;7.90;99.90
28823;DHT22;15961;54.678;9.110;2023-02-28T10:37:37;8.10;99.90
28823;DHT22;15961;54.678;9.110;2023-02-28T10:40:05;8.10;99.90
28823;DHT22;15961;54.678;9.110;2023-02-28T10:42:32;8.20;99.90
28823;DHT22;15961;54.678;9.110;2023-02-28T10:45:14;8.30;99.90
28823;DHT22;15961;54.678;9.110;2023-02-28T10:56:00;8.40;99.90
28823;DHT22;15961;54.678;9.110;2023-02-28T11:01:21;8.60;99.90
28823;DHT22;15961;54.678;9.110;2023-02-28T11:03:47;8.50;99.90
28823;DHT22;15961;54.678;9.110;2023-02-28T11:06:20;8.50;99.90
28823;DHT22;15961;54.678;9.110;2023-02-28T11:08:49;8.50;99.90
28823;DHT22;15961;54.678;9.110;2023-02-28T11:11:16;8.60;99.90
28823;DHT22;15961;54.678;9.110;2023-02-28T11:13:43;8.80;99.90
28823;DHT22;15961;54.678;9.110;2023-02-28T11:16:12;9.00;99.90
28823;DHT22;15961;54.678;9.110;2023-02-28T11:18:47;9.10;99.90
28823;DHT22;15961;54.678;9.110;2023-02-28T11:21:32;9.00;99.90
28823;DHT22;15961;54.678;9.110;2023-02-28T11:24:29;9.10;99.90
28823;DHT22;15961;54.678;9.110;2023-02-28T11:26:56;9.10;99.90
28823;DHT22;15961;54.678;9.110;2023-02-28T11:29:23;9.20;99.90
28823;DHT22;15961;54.678;9.110;2023-02-28T11:34:37;9.50;99.90
28823;DHT22;15961;54.678;9.110;2023-02-28T11:37:04;9.40;99.90
28823;DHT22;15961;54.678;9.110;2023-02-28T11:39:32;9.10;99.90
28823;DHT22;15961;54.678;9.110;2023-02-28T11:42:20;9.00;99.90
28823;DHT22;15961;54.678;9.110;2023-02-28T11:47:43;9.10;99.90
28823;DHT22;15961;54.678;9.110;2023-02-28T11:53:47;9.30;99.90
28823;DHT22;15961;54.678;9.110;2023-02-28T12:07:16;10.20;99.90
28823;DHT22;15961;54.678;9.110;2023-02-28T12:10:17;10.30;99.90
28823;DHT22;15961;54.678;9.110;2023-02-28T12:12:58;10.50;99.90
28823;DHT22;15961;54.678;9.110;2023-02-28T12:26:41;10.70;99.90
28823;DHT22;15961;54.678;9.110;2023-02-28T12:29:30;11.00;99.90
28823;DHT22;15961;54.678;9.110;2023-02-28T12:32:23;11.20;99.90
28823;DHT22;15961;54.678;9.110;2023-02-28T12:35:12;11.50;99.90
28823;DHT22;15961;54.678;9.110;2023-02-28T12:37:45;11.80;99.90
28823;DHT22;15961;54.678;9.110;2023-02-28T12:40:23;12.10;99.90
28823;DHT22;15961;54.678;9.110;2023-02-28T12:42:51;12.20;99.90
28823;DHT22;15961;54.678;9.110;2023-02-28T12:48:10;11.90;99.90
28823;DHT22;15961;54.678;9.110;2023-02-28T12:50:37;11.90;99.90
28823;DHT22;15961;54.678;9.110;2023-02-28T12:53:07;11.90;99.90
28823;DHT22;15961;54.678;9.110;2023-02-28T12:55:52;12.10;99.90
28823;DHT22;15961;54.678;9.110;2023-02-28T12:58:33;12.20;99.90
28823;DHT22;15961;54.678;9.110;2023-02-28T13:07:25;13.50;99.90
28823;DHT22;15961;54.678;9.110;2023-02-28T13:09:57;13.90;99.90
28823;DHT22;15961;54.678;9.110;2023-02-28T13:12:24;13.80;99.90
28823;DHT22;15961;54.678;9.110;2023-02-28T13:15:07;13.80;99.90
28823;DHT22;15961;54.678;9.110;2023-02-28T13:17:39;13.30;99.90
28823;DHT22;15961;54.678;9.110;2023-02-28T13:20:16;13.10;99.90
28823;DHT22;15961;54.678;9.110;2023-02-28T13:22:44;13.40;99.90
28823;DHT22;15961;54.678;9.110;2023-02-28T13:27:49;13.90;99.90
28823;DHT22;15961;54.678;9.110;2023-02-28T13:36:23;13.00;99.90
28823;DHT22;15961;54.678;9.110;2023-02-28T13:38:58;12.60;99.90
28823;DHT22;15961;54.678;9.110;2023-02-28T14:06:18;10.60;99.90
28823;DHT22;15961;54.678;9.110;2023-02-28T14:08:58;10.20;99.90
28823;DHT22;15961;54.678;9.110;2023-02-28T14:11:36;9.80;99.90
28823;DHT22;15961;54.678;9.110;2023-02-28T14:14:04;9.50;99.90
28823;DHT22;15961;54.678;9.110;2023-02-28T14:16:41;9.20;99.90
28823;DHT22;15961;54.678;9.110;2023-02-28T14:19:15;9.10;99.90
28823;DHT22;15961;54.678;9.110;2023-02-28T14:37:49;10.90;99.90
28823;DHT22;15961;54.678;9.110;2023-02-28T14:42:57;12.40;99.90
28823;DHT22;15961;54.678;9.110;2023-02-28T14:45:24;12.60;99.90
28823;DHT22;15961;54.678;9.110;2023-02-28T14:47:52;12.50;99.90
28823;DHT22;15961;54.678;9.110;2023-02-28T14:50:24;12.40;99.90
28823;DHT22;15961;54.678;9.110;2023-02-28T14:52:54;12.40;99.90
28823;DHT22;15961;54.678;9.110;2023-02-28T14:55:36;12.60;99.90
28823;DHT22;15961;54.678;9.110;2023-02-28T14:58:05;12.90;99.90
28823;DHT22;15961;54.678;9.110;2023-02-28T15:00:34;12.80;99.90
28823;DHT22;15961;54.678;9.110;2023-02-28T15:03:21;13.00;99.90
28823;DHT22;15961;54.678;9.110;2023-02-28T15:05:54;12.90;99.90
28823;DHT22;15961;54.678;9.110;2023-02-28T15:08:20;12.40;99.90
28823;DHT22;15961;54.678;9.110;2023-02-28T15:13:26;12.60;99.90
28823;DHT22;15961;54.678;9.110;2023-02-28T15:16:00;12.90;99.90
28823;DHT22;15961;54.678;9.110;2023-02-28T15:18:49;13.00;99.90
28823;DHT22;15961;54.678;9.110;2023-02-28T15:21:21;12.50;99.90
28823;DHT22;15961;54.678;9.110;2023-02-28T15:23:55;11.60;99.90
28823;DHT22;15961;54.678;9.110;2023-02-28T15:26:29;10.90;99.90
28823;DHT22;15961;54.678;9.110;2023-02-28T15:29:07;10.10;99.90
28823;DHT22;15961;54.678;9.110;2023-02-28T15:31:38;9.70;99.90
28823;DHT22;15961;54.678;9.110;2023-02-28T15:34:18;9.90;99.90
28823;DHT22;15961;54.678;9.110;2023-02-28T15:36:43;10.50;99.90
28823;DHT22;15961;54.678;9.110;2023-02-28T15:39:24;10.80;99.90
28823;DHT22;15961;54.678;9.110;2023-02-28T15:41:52;11.30;99.90
28823;DHT22;15961;54.678;9.110;2023-02-28T15:44:27;11.40;99.90
28823;DHT22;15961;54.678;9.110;2023-02-28T15:47:12;11.50;99.90
28823;DHT22;15961;54.678;9.110;2023-02-28T15:52:29;11.50;99.90
28823;DHT22;15961;54.678;9.110;2023-02-28T15:54:58;11.00;99.90
28823;DHT22;15961;54.678;9.110;2023-02-28T15:57:26;10.50;99.90
28823;DHT22;15961;54.678;9.110;2023-02-28T15:59:59;9.90;99.90
28823;DHT22;15961;54.678;9.110;2023-02-28T16:02:34;9.40;99.90
28823;DHT22;15961;54.678;9.110;2023-02-28T16:07:38;9.30;99.90
28823;DHT22;15961;54.678;9.110;2023-02-28T16:10:05;9.50;99.90
28823;DHT22;15961;54.678;9.110;2023-02-28T16:12:38;9.20;99.90
28823;DHT22;15961;54.678;9.110;2023-02-28T16:15:20;8.90;99.90
28823;DHT22;15961;54.678;9.110;2023-02-28T16:17:47;8.70;99.90
28823;DHT22;15961;54.678;9.110;2023-02-28T16:20:21;8.50;99.90
28823;DHT22;15961;54.678;9.110;2023-02-28T16:22:47;8.30;99.90
28823;DHT22;15961;54.678;9.110;2023-02-28T16:25:14;8.00;99.90
28823;DHT22;15961;54.678;9.110;2023-02-28T16:27:40;7.70;99.90
28823;DHT22;15961;54.678;9.110;2023-02-28T16:30:15;7.50;99.90
28823;DHT22;15961;54.678;9.110;2023-02-28T16:32:41;7.40;99.90
28823;DHT22;15961;54.678;9.110;2023-02-28T16:35:10;7.30;99.90
28823;DHT22;15961;54.678;9.110;2023-02-28T16:37:36;7.10;99.90
28823;DHT22;15961;54.678;9.110;2023-02-28T16:40:03;7.10;99.90
28823;DHT22;15961;54.678;9.110;2023-02-28T16:42:28;6.90;99.90
28823;DHT22;15961;54.678;9.110;2023-02-28T16:44:56;6.70;99.90
28823;DHT22;15961;54.678;9.110;2023-02-28T16:47:22;6.40;99.90
28823;DHT22;15961;54.678;9.110;2023-02-28T16:49:47;6.20;99.90
28823;DHT22;15961;54.678;9.110;2023-02-28T16:52:13;5.90;99.90
28823;DHT22;15961;54.678;9.110;2023-02-28T16:54:40;5.70;99.90
28823;DHT22;15961;54.678;9.110;2023-02-28T16:57:13;5.50;99.90
28823;DHT22;15961;54.678;9.110;2023-02-28T16:59:44;5.40;99.90
28823;DHT22;15961;54.678;9.110;2023-02-28T17:02:14;5.30;99.90
28823;DHT22;15961;54.678;9.110;2023-02-28T17:04:40;5.10;99.90
28823;DHT22;15961;54.678;9.110;2023-02-28T17:07:12;4.90;99.90
28823;DHT22;15961;54.678;9.110;2023-02-28T17:09:38;4.80;99.90
28823;DHT22;15961;54.678;9.110;2023-02-28T17:12:04;4.60;99.90
28823;DHT22;15961;54.678;9.110;2023-02-28T17:14:29;4.50;99.90
28823;DHT22;15961;54.678;9.110;2023-02-28T17:16:55;4.40;99.90
28823;DHT22;15961;54.678;9.110;2023-02-28T17:19:21;4.30;99.90
28823;DHT22;15961;54.678;9.110;2023-02-28T17:21:46;4.20;99.90
28823;DHT22;15961;54.678;9.110;2023-02-28T17:24:12;4.20;99.90
28823;DHT22;15961;54.678;9.110;2023-02-28T17:26:42;4.10;99.90
28823;DHT22;15961;54.678;9.110;2023-02-28T17:29:20;4.00;99.90
28823;DHT22;15961;54.678;9.110;2023-02-28T17:31:46;4.00;99.90
28823;DHT22;15961;54.678;9.110;2023-02-28T17:34:12;4.00;99.90
28823;DHT22;15961;54.678;9.110;2023-02-28T17:36:44;4.00;99.90
28823;DHT22;15961;54.678;9.110;2023-02-28T17:39:12;3.90;99.90
28823;DHT22;15961;54.678;9.110;2023-02-28T17:41:45;3.80;99.90
28823;DHT22;15961;54.678;9.110;2023-02-28T17:44:10;3.80;99.90
28823;DHT22;15961;54.678;9.110;2023-02-28T17:46:36;3.80;99.90
28823;DHT22;15961;54.678;9.110;2023-02-28T17:49:02;3.60;99.90
28823;DHT22;15961;54.678;9.110;2023-02-28T17:51:28;3.50;99.90
28823;DHT22;15961;54.678;9.110;2023-02-28T17:53:53;3.40;99.90
28823;DHT22;15961;54.678;9.110;2023-02-28T17:56:24;3.40;99.90
28823;DHT22;15961;54.678;9.110;2023-02-28T17:58:52;3.30;99.90
28823;DHT22;15961;54.678;9.110;2023-02-28T18:01:18;3.30;99.90
28823;DHT22;15961;54.678;9.110;2023-02-28T18:03:45;3.40;99.90
28823;DHT22;15961;54.678;9.110;2023-02-28T18:06:21;3.20;99.90
28823;DHT22;15961;54.678;9.110;2023-02-28T18:08:47;3.10;99.90
28823;DHT22;15961;54.678;9.110;2023-02-28T18:11:13;2.90;99.90
28823;DHT22;15961;54.678;9.110;2023-02-28T18:13:52;2.80;99.90
28823;DHT22;15961;54.678;9.110;2023-02-28T18:16:19;2.70;99.90
28823;DHT22;15961;54.678;9.110;2023-02-28T18:18:46;2.70;99.90
28823;DHT22;15961;54.678;9.110;2023-02-28T18:21:15;2.60;99.90
28823;DHT22;15961;54.678;9.110;2023-02-28T18:23:42;2.50;99.90
28823;DHT22;15961;54.678;9.110;2023-02-28T18:26:14;2.40;99.90
28823;DHT22;15961;54.678;9.110;2023-02-28T18:28:40;2.40;99.90